San Diego, California
Current Conditions -  °F | °C
As of 7:51 PM on Tuesday 21 Oct 2014 (Local Time) from KSAN Reporting Station
Broken Clouds Broken Clouds  
Wind Chill: 21°   Ceiling: 20000
Heat Index: 21°   Visibility: 10mi
Dew Point: 16°   Wind: 3mph
Humidity: 73%   Direction: NA
Pressure: 29.88"   Gusts: NA
Location:  32.72°N, 117.16°W
Report Text: KSAN 220251Z VRB03KT 10SM SCT015 BKN200 21/16 A2988 RMK AO2 SLP117 T02110161 53010
Loading
Personal Weather Stations






























Interactive Weather Map New forecast layout! Learn more

10-Day Weather Forecast

Advertisements
Track Severe Weather on mobile